Time;durP1;ratioP1;P1;durP2;ratioP2;P2;SDS_P1;SDS_P2;PMS_P1;PMS_P2;Temp;Humidity;BMP_temperature;BMP_pressure;BME280_temperature;BME280_humidity;BME280_pressure;Samples;Min_cycle;Max_cycle;Signal;HPM_P1;HPM_P2
2023/05/14 00:01:18;;;;;;;2.95;1.17;;;12.30;79.10;;;;;;5055139;28;20502;-70
2023/05/14 00:03:43;;;;;;;1.60;0.93;;;12.30;79.10;;;;;;5055228;28;20021;-70
2023/05/14 00:06:10;;;;;;;1.45;1.35;;;12.30;79.10;;;;;;5054775;28;20057;-70
2023/05/14 00:08:36;;;;;;;1.10;0.93;;;12.30;79.20;;;;;;5054164;28;20021;-70
2023/05/14 00:11:02;;;;;;;1.33;1.10;;;12.30;79.10;;;;;;5054767;28;20021;-70
2023/05/14 00:13:28;;;;;;;1.95;1.20;;;12.30;79.10;;;;;;5055138;28;20048;-70
2023/05/14 00:15:54;;;;;;;0.80;0.80;;;12.30;79.10;;;;;;5054675;28;20112;-70
2023/05/14 00:18:20;;;;;;;1.70;0.90;;;12.30;79.10;;;;;;5055152;28;20091;-70
2023/05/14 00:20:46;;;;;;;1.20;1.10;;;12.40;79.00;;;;;;5054683;28;20029;-70
2023/05/14 00:23:12;;;;;;;1.77;1.27;;;12.40;79.00;;;;;;5054797;28;20071;-70
2023/05/14 00:25:38;;;;;;;1.30;1.20;;;12.40;78.90;;;;;;5053727;28;20482;-70
2023/05/14 00:28:04;;;;;;;1.13;1.02;;;12.40;78.80;;;;;;5053929;28;20434;-70
2023/05/14 00:30:30;;;;;;;1.27;1.15;;;12.40;78.70;;;;;;5054554;28;20078;-70
2023/05/14 00:32:56;;;;;;;2.72;1.17;;;12.40;78.70;;;;;;5054512;28;20112;-70
2023/05/14 00:35:22;;;;;;;2.35;1.13;;;12.50;78.60;;;;;;5054433;28;20112;-70
2023/05/14 00:37:47;;;;;;;1.88;0.82;;;12.50;78.60;;;;;;5054486;28;20043;-70
2023/05/14 00:40:14;;;;;;;1.38;1.23;;;12.50;78.50;;;;;;5054795;28;20025;-70
2023/05/14 00:42:40;;;;;;;2.28;1.00;;;12.50;78.40;;;;;;5053479;28;20120;-70
2023/05/14 00:45:06;;;;;;;1.30;1.13;;;12.50;78.40;;;;;;5054932;28;20090;-70
2023/05/14 00:47:35;;;;;;;3.28;1.48;;;12.60;78.40;;;;;;5054419;28;20029;-70
2023/05/14 00:50:02;;;;;;;1.10;1.00;;;12.50;78.40;;;;;;5058379;28;20039;-70
2023/05/14 00:52:28;;;;;;;1.15;1.05;;;12.50;78.30;;;;;;5058329;28;20108;-70
2023/05/14 00:54:55;;;;;;;1.13;1.02;;;12.60;78.20;;;;;;5058140;28;20100;-70
2023/05/14 00:57:21;;;;;;;1.02;0.93;;;12.60;78.20;;;;;;5057945;28;20045;-70
2023/05/14 00:59:47;;;;;;;1.52;1.20;;;12.60;78.20;;;;;;5057976;28;20031;-70
2023/05/14 01:02:13;;;;;;;0.90;0.90;;;12.60;78.10;;;;;;5058396;28;20032;-70
2023/05/14 01:04:39;;;;;;;1.63;0.85;;;12.60;78.10;;;;;;5057895;28;20032;-70
2023/05/14 01:07:14;;;;;;;1.20;1.02;;;12.70;78.10;;;;;;5057786;28;20104;-70
2023/05/14 01:09:51;;;;;;;1.05;0.90;;;12.70;78.00;;;;;;5057169;28;20032;-70
2023/05/14 01:12:39;;;;;;;2.30;1.00;;;12.70;78.10;;;;;;5058225;28;20489;-70
2023/05/14 01:15:09;;;;;;;1.95;1.00;;;12.70;78.00;;;;;;5056564;28;20056;-70
2023/05/14 01:18:00;;;;;;;1.10;1.00;;;12.70;78.00;;;;;;5057850;28;20411;-70
2023/05/14 01:20:26;;;;;;;1.25;1.00;;;12.70;78.00;;;;;;5057527;28;20035;-70
2023/05/14 01:22:52;;;;;;;2.45;1.00;;;12.70;78.10;;;;;;5057888;28;20099;-70
2023/05/14 01:25:18;;;;;;;1.60;1.00;;;12.70;78.30;;;;;;5057715;28;20025;-70
2023/05/14 01:28:03;;;;;;;1.88;1.00;;;12.70;78.40;;;;;;5057430;28;20028;-70
2023/05/14 01:30:36;;;;;;;2.83;1.15;;;12.60;78.40;;;;;;5057861;28;20331;-70
2023/05/14 01:33:05;;;;;;;1.20;1.10;;;12.60;78.50;;;;;;5057242;28;20056;-70
2023/05/14 01:35:32;;;;;;;2.15;1.20;;;12.60;78.60;;;;;;5057117;28;20275;-70
2023/05/14 01:38:03;;;;;;;1.50;1.10;;;12.60;78.60;;;;;;5057179;28;20060;-70
2023/05/14 01:40:31;;;;;;;3.28;1.02;;;12.50;78.70;;;;;;5057172;28;20049;-70
2023/05/14 01:42:58;;;;;;;1.45;1.25;;;12.50;78.70;;;;;;5057032;28;20075;-70
2023/05/14 01:45:24;;;;;;;1.27;1.17;;;12.50;78.70;;;;;;5057591;28;20032;-70
2023/05/14 01:47:51;;;;;;;1.20;1.10;;;12.50;78.80;;;;;;5057262;28;20033;-70
2023/05/14 01:50:17;;;;;;;1.63;1.30;;;12.50;78.90;;;;;;5056904;28;20036;-70
2023/05/14 01:52:43;;;;;;;3.03;1.25;;;12.50;79.00;;;;;;5056941;28;20025;-70
2023/05/14 01:55:09;;;;;;;1.10;1.00;;;12.40;79.00;;;;;;5056944;28;20457;-70
2023/05/14 01:57:35;;;;;;;2.17;1.17;;;12.40;79.00;;;;;;5056542;28;20048;-70
2023/05/14 02:00:03;;;;;;;2.85;1.25;;;12.40;79.10;;;;;;5055844;28;20039;-70
2023/05/14 02:02:28;;;;;;;1.20;1.10;;;12.40;79.20;;;;;;5057005;28;20082;-70
2023/05/14 02:04:54;;;;;;;1.42;1.00;;;12.40;79.40;;;;;;5056887;28;20024;-70
2023/05/14 02:07:20;;;;;;;3.53;2.05;;;12.40;79.40;;;;;;5056918;28;20024;-70
2023/05/14 02:09:46;;;;;;;2.65;1.25;;;12.40;79.40;;;;;;5056614;28;20029;-70
2023/05/14 02:12:12;;;;;;;0.98;0.93;;;12.40;79.40;;;;;;5056839;28;20056;-70
2023/05/14 02:14:38;;;;;;;0.88;0.85;;;12.40;79.40;;;;;;5056496;28;20067;-70
2023/05/14 02:17:04;;;;;;;2.47;1.30;;;12.40;79.30;;;;;;5056495;28;20102;-70
2023/05/14 02:19:30;;;;;;;0.90;0.90;;;12.40;79.20;;;;;;5056396;28;20540;-70
2023/05/14 02:21:59;;;;;;;3.00;1.20;;;12.50;79.10;;;;;;5056657;28;20057;-70
2023/05/14 02:24:26;;;;;;;1.13;0.90;;;12.50;79.00;;;;;;5056234;28;20515;-70
2023/05/14 02:26:52;;;;;;;0.73;0.73;;;12.50;78.90;;;;;;5056290;28;20033;-70
2023/05/14 02:29:18;;;;;;;2.05;1.08;;;12.50;78.90;;;;;;5056244;28;20083;-70
2023/05/14 02:31:44;;;;;;;1.20;1.10;;;12.50;78.80;;;;;;5056213;28;20036;-70
2023/05/14 02:34:09;;;;;;;1.42;0.73;;;12.50;78.70;;;;;;5055026;28;20024;-70
2023/05/14 02:36:35;;;;;;;2.70;1.10;;;12.60;78.60;;;;;;5056079;28;20029;-70
2023/05/14 02:39:01;;;;;;;1.95;1.20;;;12.60;78.50;;;;;;5056083;28;20028;-70
2023/05/14 02:41:27;;;;;;;1.10;1.00;;;12.60;78.40;;;;;;5056476;28;20024;-70
2023/05/14 02:43:53;;;;;;;1.00;0.90;;;12.60;78.30;;;;;;5056121;28;20021;-70
2023/05/14 02:46:19;;;;;;;1.08;0.95;;;12.70;78.20;;;;;;5055862;28;20449;-70
2023/05/14 02:48:45;;;;;;;1.23;1.05;;;12.70;78.20;;;;;;5056410;28;20032;-70
2023/05/14 02:51:11;;;;;;;0.90;0.90;;;12.70;78.10;;;;;;5056308;28;20020;-70
2023/05/14 02:53:37;;;;;;;1.85;0.90;;;12.70;78.10;;;;;;5056207;28;20025;-70
2023/05/14 02:56:03;;;;;;;1.38;0.90;;;12.70;78.10;;;;;;5056199;28;20063;-70
2023/05/14 02:58:29;;;;;;;1.58;0.90;;;12.70;78.00;;;;;;5055550;28;20045;-70
2023/05/14 03:00:55;;;;;;;2.30;1.38;;;12.70;78.00;;;;;;5055624;28;20344;-70
2023/05/14 03:03:21;;;;;;;3.65;0.90;;;12.70;78.00;;;;;;5054886;28;20028;-70
2023/05/14 03:05:47;;;;;;;1.77;1.13;;;12.70;77.90;;;;;;5055570;28;20029;-70
2023/05/14 03:08:13;;;;;;;1.90;0.90;;;12.80;77.90;;;;;;5055766;28;20100;-70
2023/05/14 03:10:39;;;;;;;2.45;0.93;;;12.80;77.90;;;;;;5055149;28;20056;-70
2023/05/14 03:13:05;;;;;;;1.90;0.93;;;12.70;78.00;;;;;;5055385;28;20029;-70
2023/05/14 03:15:31;;;;;;;0.80;0.80;;;12.70;78.00;;;;;;5055339;28;20084;-70
2023/05/14 03:17:56;;;;;;;0.93;0.90;;;12.70;78.00;;;;;;5055277;28;20031;-70
2023/05/14 03:20:24;;;;;;;0.82;0.82;;;12.70;78.00;;;;;;5055864;28;20100;-70
2023/05/14 03:22:51;;;;;;;1.17;0.82;;;12.70;78.00;;;;;;5055504;28;20028;-70
2023/05/14 03:25:17;;;;;;;1.25;0.93;;;12.70;78.00;;;;;;5054293;28;20339;-70
2023/05/14 03:27:42;;;;;;;3.55;1.08;;;12.70;77.90;;;;;;5055465;28;20051;-70
2023/05/14 03:30:10;;;;;;;1.30;1.20;;;12.70;77.90;;;;;;5055442;28;20357;-70
2023/05/14 03:32:36;;;;;;;1.65;1.20;;;12.70;77.90;;;;;;5055088;28;20230;-70
2023/05/14 03:35:02;;;;;;;1.08;0.90;;;12.80;77.80;;;;;;5055019;28;20061;-70
2023/05/14 03:37:28;;;;;;;0.85;0.85;;;12.80;77.80;;;;;;5055358;28;20095;-70
2023/05/14 03:39:54;;;;;;;1.52;1.42;;;12.80;77.80;;;;;;5055328;28;20128;-70
2023/05/14 03:42:20;;;;;;;2.35;1.00;;;12.80;77.80;;;;;;5055295;28;20021;-70
2023/05/14 03:44:45;;;;;;;1.70;1.10;;;12.80;77.80;;;;;;5054961;28;20399;-70
2023/05/14 03:47:11;;;;;;;1.45;1.15;;;12.80;77.70;;;;;;5055565;28;20017;-70
2023/05/14 03:49:37;;;;;;;0.90;0.90;;;12.70;77.70;;;;;;5054965;28;20029;-70
2023/05/14 03:52:03;;;;;;;2.25;1.10;;;12.70;77.70;;;;;;5054936;28;20040;-70
2023/05/14 03:54:29;;;;;;;0.90;0.90;;;12.80;77.80;;;;;;5055025;28;20033;-70
2023/05/14 03:56:56;;;;;;;1.20;0.93;;;12.80;77.80;;;;;;5054816;28;20060;-70
2023/05/14 03:59:21;;;;;;;0.85;0.85;;;12.80;77.80;;;;;;5055112;28;20032;-70
2023/05/14 04:01:47;;;;;;;0.70;0.70;;;12.80;77.70;;;;;;5055372;28;20021;-70
2023/05/14 04:04:13;;;;;;;1.65;1.10;;;12.80;77.80;;;;;;5054756;28;20446;-70
2023/05/14 04:06:39;;;;;;;2.10;1.60;;;12.80;77.80;;;;;;5054771;28;20405;-70
2023/05/14 04:09:05;;;;;;;2.80;1.10;;;12.70;77.90;;;;;;5055346;28;20029;-70
2023/05/14 04:11:31;;;;;;;0.85;0.85;;;12.70;77.80;;;;;;5054739;28;20048;-70
2023/05/14 04:13:57;;;;;;;1.42;1.25;;;12.70;77.70;;;;;;5054532;28;20033;-70
2023/05/14 04:16:23;;;;;;;1.20;1.10;;;12.70;77.60;;;;;;5054703;28;20450;-70
2023/05/14 04:18:49;;;;;;;1.15;1.00;;;12.80;77.70;;;;;;5054674;28;20369;-70
2023/05/14 04:21:15;;;;;;;1.42;1.00;;;12.80;77.80;;;;;;5054701;28;20447;-70
2023/05/14 04:23:41;;;;;;;0.80;0.80;;;12.80;77.80;;;;;;5056730;28;20028;-70
2023/05/14 04:26:07;;;;;;;1.25;1.15;;;12.80;77.90;;;;;;5058585;28;20116;-70
2023/05/14 04:28:32;;;;;;;1.13;1.08;;;12.80;78.00;;;;;;5058827;28;20430;-70
2023/05/14 04:30:58;;;;;;;1.08;0.98;;;12.80;78.10;;;;;;5059007;28;20163;-70
2023/05/14 04:33:24;;;;;;;1.33;1.20;;;12.80;78.20;;;;;;5058387;28;20029;-70
2023/05/14 04:35:51;;;;;;;0.93;0.93;;;12.80;78.20;;;;;;5058369;28;20033;-70
2023/05/14 04:38:16;;;;;;;1.83;0.90;;;12.90;78.30;;;;;;5058587;28;20025;-70
2023/05/14 04:40:42;;;;;;;1.85;1.00;;;12.90;78.30;;;;;;5058580;28;20021;-70
2023/05/14 04:43:08;;;;;;;1.25;0.93;;;12.90;78.50;;;;;;5058447;28;20017;-70
2023/05/14 04:45:35;;;;;;;1.80;0.93;;;12.90;78.50;;;;;;5058901;28;20033;-70
2023/05/14 04:48:03;;;;;;;1.23;1.00;;;12.90;78.60;;;;;;5058372;28;20032;-70
2023/05/14 04:50:29;;;;;;;1.17;1.15;;;13.00;78.60;;;;;;5058119;28;20035;-70
2023/05/14 04:52:54;;;;;;;1.50;0.98;;;13.00;78.60;;;;;;5058250;28;20063;-70
2023/05/14 04:55:21;;;;;;;0.90;0.90;;;13.00;78.60;;;;;;5058003;28;20049;-70
2023/05/14 04:57:48;;;;;;;1.60;1.50;;;13.10;78.60;;;;;;5057831;28;20049;-70
2023/05/14 05:00:16;;;;;;;1.92;1.60;;;13.20;78.50;;;;;;5057925;28;20082;-70
2023/05/14 05:02:42;;;;;;;1.70;1.52;;;13.20;78.40;;;;;;5057834;28;20053;-70
2023/05/14 05:05:08;;;;;;;2.33;1.60;;;13.30;78.30;;;;;;5057766;28;20362;-70
2023/05/14 05:07:34;;;;;;;1.13;1.05;;;13.40;78.30;;;;;;5058036;28;20028;-70
2023/05/14 05:10:00;;;;;;;0.98;0.88;;;13.40;78.30;;;;;;5057780;28;20021;-70
2023/05/14 05:12:28;;;;;;;3.72;1.20;;;13.50;78.10;;;;;;5058253;28;20037;-70
2023/05/14 05:14:56;;;;;;;0.82;0.82;;;13.50;78.10;;;;;;5057828;28;20060;-70
2023/05/14 05:17:23;;;;;;;1.13;1.00;;;13.60;78.10;;;;;;5057880;28;20025;-70
2023/05/14 05:19:49;;;;;;;3.40;1.20;;;13.60;78.10;;;;;;5057846;28;20108;-70
2023/05/14 05:22:15;;;;;;;3.10;1.35;;;13.70;78.10;;;;;;5057447;28;20025;-70
2023/05/14 05:24:40;;;;;;;1.95;1.70;;;13.70;78.00;;;;;;5056422;28;20128;-70
2023/05/14 05:27:07;;;;;;;2.17;1.65;;;13.70;77.90;;;;;;5057478;28;20100;-70
2023/05/14 05:29:34;;;;;;;1.92;1.80;;;13.70;78.00;;;;;;5057424;28;20033;-70
2023/05/14 05:32:00;;;;;;;3.22;2.30;;;13.70;77.80;;;;;;5056491;28;20031;-70
2023/05/14 05:34:26;;;;;;;1.75;1.63;;;13.70;77.80;;;;;;5056904;28;20029;-70
2023/05/14 05:36:52;;;;;;;3.00;1.60;;;13.70;77.90;;;;;;5057529;28;20095;-70
2023/05/14 05:39:18;;;;;;;2.05;1.85;;;13.80;78.00;;;;;;5057200;28;20057;-70
2023/05/14 05:41:44;;;;;;;2.47;2.00;;;13.80;78.10;;;;;;5057455;28;20347;-70
2023/05/14 05:44:10;;;;;;;1.95;1.77;;;13.80;78.20;;;;;;5057301;28;20090;-70
2023/05/14 05:46:36;;;;;;;2.22;1.70;;;13.80;78.10;;;;;;5057063;28;20320;-70
2023/05/14 05:49:02;;;;;;;2.38;2.08;;;13.80;78.10;;;;;;5057008;28;20484;-70
2023/05/14 05:51:29;;;;;;;3.30;1.67;;;13.80;77.80;;;;;;5057194;28;20017;-70
2023/05/14 05:53:54;;;;;;;3.03;1.48;;;13.80;77.70;;;;;;5057121;28;20021;-70
2023/05/14 05:56:20;;;;;;;1.58;1.48;;;13.90;77.70;;;;;;5056846;28;20075;-70
2023/05/14 05:58:47;;;;;;;2.55;1.80;;;13.90;77.80;;;;;;5057145;28;20175;-70
2023/05/14 06:01:13;;;;;;;2.80;1.42;;;13.90;77.50;;;;;;5057353;28;20141;-70
2023/05/14 06:03:38;;;;;;;5.13;2.83;;;13.90;77.50;;;;;;5057194;28;20021;-70
2023/05/14 06:06:05;;;;;;;2.85;2.00;;;14.00;76.60;;;;;;5056693;28;20037;-70
2023/05/14 06:08:31;;;;;;;2.80;2.30;;;14.00;76.60;;;;;;5056593;28;20033;-70
2023/05/14 06:10:57;;;;;;;3.30;2.05;;;14.00;76.60;;;;;;5055585;28;20032;-70
2023/05/14 06:13:23;;;;;;;3.25;2.25;;;14.10;76.50;;;;;;5056916;28;20043;-70
2023/05/14 06:15:49;;;;;;;5.40;1.98;;;14.10;76.50;;;;;;5056959;28;20017;-69
2023/05/14 06:18:15;;;;;;;2.47;1.83;;;14.10;76.50;;;;;;5056753;28;20445;-70
2023/05/14 06:20:40;;;;;;;3.10;2.17;;;14.20;76.20;;;;;;5056718;28;20120;-70
2023/05/14 06:23:06;;;;;;;2.35;2.00;;;14.20;76.30;;;;;;5056822;28;20444;-70
2023/05/14 06:25:33;;;;;;;5.68;1.92;;;14.30;76.30;;;;;;5056324;28;20082;-70
2023/05/14 06:27:59;;;;;;;1.83;1.70;;;14.30;76.30;;;;;;5056551;28;20044;-70
2023/05/14 06:30:25;;;;;;;2.50;1.80;;;14.30;76.20;;;;;;5056517;28;20025;-70
2023/05/14 06:32:51;;;;;;;4.57;1.88;;;14.40;75.90;;;;;;5056410;28;20021;-70
2023/05/14 06:35:18;;;;;;;2.25;1.90;;;14.40;75.80;;;;;;5056062;28;20370;-70
2023/05/14 06:37:44;;;;;;;2.90;2.08;;;14.40;75.50;;;;;;5056130;28;20017;-70
2023/05/14 06:40:11;;;;;;;3.80;2.30;;;14.50;75.50;;;;;;5056311;28;20031;-70
2023/05/14 06:42:37;;;;;;;5.90;2.22;;;14.50;74.70;;;;;;5055968;28;20452;-70
2023/05/14 06:45:04;;;;;;;3.65;2.03;;;14.50;75.20;;;;;;5055772;28;20017;-70
2023/05/14 06:47:30;;;;;;;3.47;2.03;;;14.50;75.00;;;;;;5055671;28;20087;-70
2023/05/14 06:49:57;;;;;;;3.90;2.08;;;14.50;75.00;;;;;;5056090;28;20025;-70
2023/05/14 06:52:24;;;;;;;3.53;2.00;;;14.50;74.70;;;;;;5055773;28;20367;-70
2023/05/14 06:54:50;;;;;;;4.25;2.13;;;14.50;74.30;;;;;;5055886;28;20056;-70
2023/05/14 06:57:16;;;;;;;2.70;1.77;;;14.50;74.80;;;;;;5055639;28;20041;-70
2023/05/14 06:59:42;;;;;;;2.58;1.95;;;14.50;74.80;;;;;;5055957;28;20048;-70
2023/05/14 07:02:08;;;;;;;3.15;2.08;;;14.50;74.80;;;;;;5055649;28;20024;-70
2023/05/14 07:04:35;;;;;;;2.33;1.70;;;14.50;74.90;;;;;;5055552;28;20025;-70
2023/05/14 07:07:01;;;;;;;2.38;2.00;;;14.50;74.70;;;;;;5055867;28;20143;-70
2023/05/14 07:09:27;;;;;;;3.60;2.08;;;14.50;74.80;;;;;;5055616;28;20494;-70
2023/05/14 07:11:53;;;;;;;2.97;2.20;;;14.50;74.90;;;;;;5055753;28;20060;-70
2023/05/14 07:14:19;;;;;;;2.45;1.88;;;14.50;74.90;;;;;;5055322;28;20075;-70
2023/05/14 07:16:45;;;;;;;2.80;2.00;;;14.50;75.00;;;;;;5055446;28;20025;-70
2023/05/14 07:19:12;;;;;;;2.03;1.60;;;14.50;75.10;;;;;;5055867;28;20036;-70
2023/05/14 07:21:37;;;;;;;4.38;1.90;;;14.50;75.20;;;;;;5055361;28;20446;-70
2023/05/14 07:24:04;;;;;;;3.33;2.00;;;14.60;75.30;;;;;;5055436;28;20035;-70
2023/05/14 07:26:30;;;;;;;2.90;1.90;;;14.60;75.30;;;;;;5055477;28;20021;-70
2023/05/14 07:28:56;;;;;;;3.03;2.03;;;14.60;75.30;;;;;;5055400;28;20013;-70
2023/05/14 07:31:22;;;;;;;4.00;2.40;;;14.60;75.50;;;;;;5055391;28;20112;-70
2023/05/14 07:33:48;;;;;;;2.38;2.00;;;14.60;75.70;;;;;;5055253;28;20035;-70
2023/05/14 07:36:14;;;;;;;4.32;2.83;;;14.60;75.70;;;;;;5054960;28;20079;-70
2023/05/14 07:38:40;;;;;;;3.35;2.45;;;14.70;75.70;;;;;;5055323;28;20017;-70
2023/05/14 07:41:10;;;;;;;6.10;2.67;;;14.70;75.60;;;;;;5055277;28;20052;-70
2023/05/14 07:43:37;;;;;;;3.85;1.90;;;14.70;75.70;;;;;;5055185;28;20027;-70
2023/05/14 07:46:03;;;;;;;2.85;2.00;;;14.80;75.90;;;;;;5054995;28;20038;-70
2023/05/14 07:48:29;;;;;;;2.42;2.00;;;14.80;76.00;;;;;;5054971;28;20029;-70
2023/05/14 07:50:55;;;;;;;2.70;1.58;;;14.80;76.00;;;;;;5055256;28;20036;-70
2023/05/14 07:53:22;;;;;;;2.47;2.20;;;14.90;76.10;;;;;;5055154;28;20040;-70
2023/05/14 07:55:48;;;;;;;3.83;2.20;;;14.90;76.20;;;;;;5055023;28;20041;-70
2023/05/14 07:58:15;;;;;;;2.63;1.90;;;14.90;76.20;;;;;;5057721;28;20040;-70
2023/05/14 08:00:40;;;;;;;2.75;2.28;;;14.90;76.30;;;;;;5059310;28;20025;-70
2023/05/14 08:03:06;;;;;;;3.58;2.40;;;14.90;76.30;;;;;;5058904;28;20027;-70
2023/05/14 08:05:32;;;;;;;3.22;2.65;;;15.00;76.40;;;;;;5058975;28;20122;-70
2023/05/14 08:07:58;;;;;;;3.15;2.50;;;15.00;76.40;;;;;;5059214;28;20031;-70
2023/05/14 08:10:24;;;;;;;3.10;2.55;;;15.00;76.60;;;;;;5059475;28;20346;-70
2023/05/14 08:12:49;;;;;;;3.05;2.55;;;15.10;76.70;;;;;;5059115;28;20114;-70
2023/05/14 08:15:16;;;;;;;2.78;2.47;;;15.10;76.70;;;;;;5059169;28;20334;-70
2023/05/14 08:17:42;;;;;;;2.88;2.15;;;15.10;76.70;;;;;;5057788;28;20056;-70
2023/05/14 08:20:10;;;;;;;4.43;2.20;;;15.10;76.70;;;;;;5059232;28;20070;-70
2023/05/14 08:22:36;;;;;;;3.90;2.30;;;15.20;76.70;;;;;;5058978;28;20029;-70
2023/05/14 08:25:04;;;;;;;2.85;2.40;;;15.20;76.80;;;;;;5058527;28;20108;-70
2023/05/14 08:27:31;;;;;;;3.17;2.47;;;15.30;76.90;;;;;;5057599;28;20025;-70
2023/05/14 08:29:56;;;;;;;3.70;1.98;;;15.30;76.90;;;;;;5058834;28;20033;-70
2023/05/14 08:32:22;;;;;;;2.33;2.13;;;15.30;76.80;;;;;;5058517;28;20151;-70
2023/05/14 08:34:48;;;;;;;4.53;3.13;;;15.30;76.70;;;;;;5058313;28;20037;-70
2023/05/14 08:37:14;;;;;;;4.90;3.63;;;15.40;76.70;;;;;;5058412;28;20017;-70
2023/05/14 08:39:40;;;;;;;4.38;2.72;;;15.40;76.60;;;;;;5058825;28;20162;-70
2023/05/14 08:42:06;;;;;;;4.07;2.83;;;15.40;76.60;;;;;;5058617;28;20013;-70
2023/05/14 08:44:41;;;;;;;3.10;2.45;;;15.40;76.60;;;;;;5057247;28;20029;-70
2023/05/14 08:47:07;;;;;;;5.20;3.00;;;15.40;76.50;;;;;;5057216;28;20071;-70
2023/05/14 08:49:45;;;;;;;5.47;2.88;;;15.40;76.70;;;;;;5058669;28;20033;-70
2023/05/14 08:52:11;;;;;;;4.82;2.95;;;15.40;76.70;;;;;;5058356;28;20025;-70
2023/05/14 08:54:39;;;;;;;5.18;3.60;;;15.50;76.80;;;;;;5058197;28;20036;-70
2023/05/14 08:57:07;;;;;;;4.85;3.28;;;15.50;76.70;;;;;;5056782;28;20049;-70
2023/05/14 08:59:32;;;;;;;4.88;3.30;;;15.50;76.60;;;;;;5057924;28;20029;-70
2023/05/14 09:02:01;;;;;;;4.57;3.20;;;15.50;76.60;;;;;;5058214;28;20100;-70
2023/05/14 09:04:28;;;;;;;6.13;3.38;;;15.60;76.60;;;;;;5058076;28;20029;-70
2023/05/14 09:06:54;;;;;;;5.35;3.63;;;15.50;76.50;;;;;;5058107;28;20020;-70
2023/05/14 09:09:21;;;;;;;4.90;3.30;;;15.50;76.50;;;;;;5039589;28;20035;-70
2023/05/14 09:11:52;;;;;;;3.17;2.67;;;15.50;76.40;;;;;;5058032;28;20071;-70
2023/05/14 09:14:18;;;;;;;5.97;3.50;;;15.50;76.30;;;;;;5057568;28;20044;-70
2023/05/14 09:16:46;;;;;;;5.47;3.33;;;15.50;76.30;;;;;;5057942;28;20016;-70
2023/05/14 09:19:14;;;;;;;4.30;3.30;;;15.50;76.40;;;;;;5057640;28;20021;-70
2023/05/14 09:21:40;;;;;;;5.95;3.97;;;15.50;76.50;;;;;;5057837;28;20028;-70
2023/05/14 09:24:07;;;;;;;5.10;2.90;;;15.50;76.60;;;;;;5057496;28;20107;-70
2023/05/14 09:26:34;;;;;;;4.53;3.08;;;15.50;76.60;;;;;;5058765;28;20021;-70
2023/05/14 09:29:01;;;;;;;4.28;2.95;;;15.60;76.60;;;;;;5058696;28;20099;-70
2023/05/14 09:31:32;;;;;;;4.88;2.90;;;15.60;76.60;;;;;;5058699;28;20024;-70
2023/05/14 09:33:59;;;;;;;4.35;3.17;;;15.50;76.60;;;;;;5057419;28;20477;-70
2023/05/14 09:36:26;;;;;;;3.85;2.88;;;15.60;76.60;;;;;;5057433;28;20155;-69
2023/05/14 09:38:55;;;;;;;5.63;3.95;;;15.60;76.50;;;;;;5057464;28;20025;-70
2023/05/14 09:41:21;;;;;;;7.03;4.65;;;15.60;76.60;;;;;;5057195;28;20024;-70
2023/05/14 09:43:48;;;;;;;8.15;4.55;;;15.60;76.50;;;;;;5056012;28;20469;-69
2023/05/14 09:46:15;;;;;;;6.55;4.25;;;15.60;76.60;;;;;;5057338;28;20488;-70
2023/05/14 09:48:41;;;;;;;7.85;4.45;;;15.60;76.60;;;;;;5057014;28;20105;-70
2023/05/14 09:51:09;;;;;;;5.25;3.60;;;15.60;76.60;;;;;;5056902;28;20045;-69
2023/05/14 09:53:35;;;;;;;4.00;3.30;;;15.60;76.50;;;;;;5056950;28;20359;-69
2023/05/14 09:56:01;;;;;;;5.75;3.83;;;15.60;76.50;;;;;;5056829;28;20373;-69
2023/05/14 09:58:27;;;;;;;5.28;3.33;;;15.60;76.60;;;;;;5056740;28;20098;-70
2023/05/14 10:00:56;;;;;;;5.28;3.58;;;15.60;76.60;;;;;;5056343;28;20075;-69
2023/05/14 10:03:25;;;;;;;6.15;3.67;;;15.60;76.60;;;;;;5055742;28;20033;-65
2023/05/14 10:05:52;;;;;;;6.03;4.13;;;15.60;76.70;;;;;;5055543;28;20024;-64
2023/05/14 10:08:25;;;;;;;4.07;2.95;;;15.60;76.80;;;;;;5056485;28;20032;-64
2023/05/14 10:10:53;;;;;;;5.80;3.30;;;15.60;76.80;;;;;;5055730;28;20039;-65
2023/05/14 10:13:23;;;;;;;3.97;3.03;;;15.60;76.80;;;;;;5056768;28;20036;-65
2023/05/14 10:16:01;;;;;;;3.67;2.90;;;15.60;76.80;;;;;;5056985;28;20040;-66
2023/05/14 10:18:33;;;;;;;4.25;3.22;;;15.70;76.80;;;;;;5058475;28;20147;-65
2023/05/14 10:21:06;;;;;;;5.63;3.15;;;15.70;76.80;;;;;;5075423;28;20021;-66
2023/05/14 10:23:36;;;;;;;4.63;3.30;;;15.70;76.80;;;;;;5075486;28;20012;-66
2023/05/14 10:26:03;;;;;;;5.25;3.30;;;15.70;76.90;;;;;;5076548;28;20104;-66
2023/05/14 10:28:30;;;;;;;5.60;3.75;;;15.80;76.80;;;;;;5076252;28;20461;-65
2023/05/14 10:30:56;;;;;;;5.78;3.83;;;15.80;76.80;;;;;;5076041;28;20028;-66
2023/05/14 10:33:22;;;;;;;5.82;3.83;;;15.90;76.90;;;;;;5074924;28;20032;-65
2023/05/14 10:36:03;;;;;;;6.75;4.15;;;15.90;76.90;;;;;;5075258;28;20033;-65
2023/05/14 10:38:32;;;;;;;7.28;3.88;;;16.00;76.80;;;;;;5075348;28;20031;-65
2023/05/14 10:41:00;;;;;;;5.55;3.50;;;16.10;76.70;;;;;;5074337;28;20024;-65
2023/05/14 10:43:29;;;;;;;5.95;3.85;;;16.20;76.70;;;;;;5075097;28;20086;-65
2023/05/14 10:45:56;;;;;;;5.28;3.70;;;16.30;76.50;;;;;;5075819;28;20039;-66
2023/05/14 10:48:23;;;;;;;8.93;4.40;;;16.40;76.50;;;;;;5076085;28;20112;-66
2023/05/14 10:50:52;;;;;;;5.72;3.30;;;16.60;76.40;;;;;;5074919;28;20031;-66
2023/05/14 10:53:18;;;;;;;4.72;3.35;;;16.80;76.00;;;;;;5075918;28;20026;-65
2023/05/14 10:55:44;;;;;;;4.82;3.28;;;17.00;76.00;;;;;;5075837;28;20044;-66
2023/05/14 10:58:10;;;;;;;4.97;3.50;;;17.20;75.60;;;;;;5075368;28;20376;-66
2023/05/14 11:00:37;;;;;;;4.35;3.25;;;17.40;75.20;;;;;;5075755;28;20017;-65
2023/05/14 11:03:04;;;;;;;5.90;3.50;;;17.50;75.00;;;;;;5075494;28;20141;-65
2023/05/14 11:05:31;;;;;;;4.28;2.90;;;17.70;74.70;;;;;;5075955;28;20430;-65
2023/05/14 11:07:58;;;;;;;5.38;3.50;;;17.80;74.30;;;;;;5075951;28;20028;-65
2023/05/14 11:10:28;;;;;;;4.40;3.17;;;18.00;74.20;;;;;;5075498;28;20032;-66
2023/05/14 11:12:56;;;;;;;4.65;3.08;;;18.10;74.00;;;;;;5075913;28;20127;-66
2023/05/14 11:15:24;;;;;;;3.47;2.53;;;18.20;73.50;;;;;;5075273;28;20306;-65
2023/05/14 11:17:52;;;;;;;3.70;2.80;;;18.30;73.20;;;;;;5075469;28;20096;-66
2023/05/14 11:20:18;;;;;;;3.75;2.40;;;18.40;72.90;;;;;;5075209;28;20024;-65
2023/05/14 11:22:46;;;;;;;3.28;1.98;;;18.50;72.80;;;;;;5075098;28;20426;-67
2023/05/14 11:25:13;;;;;;;3.00;2.20;;;18.50;72.10;;;;;;5075057;28;20025;-65
2023/05/14 11:27:41;;;;;;;3.67;2.08;;;18.50;71.80;;;;;;5074989;28;20362;-65
2023/05/14 11:30:17;;;;;;;3.63;1.67;;;18.60;71.70;;;;;;5075043;28;20421;-66
2023/05/14 11:32:45;;;;;;;2.97;1.98;;;18.70;71.50;;;;;;5074670;28;20107;-65
2023/05/14 11:35:12;;;;;;;2.45;1.80;;;18.70;71.20;;;;;;5074872;28;20051;-65
2023/05/14 11:37:38;;;;;;;3.40;2.10;;;18.80;71.10;;;;;;5074878;28;20035;-65
2023/05/14 11:40:15;;;;;;;2.35;1.70;;;18.90;70.90;;;;;;5074722;28;20021;-66
2023/05/14 11:42:41;;;;;;;1.80;1.63;;;18.90;70.60;;;;;;5074966;28;20021;-66
2023/05/14 11:45:11;;;;;;;1.65;1.55;;;19.00;70.20;;;;;;5074713;28;20330;-65
2023/05/14 11:47:37;;;;;;;1.60;1.30;;;19.10;70.00;;;;;;5073800;28;20115;-66
2023/05/14 11:50:03;;;;;;;1.83;1.52;;;19.10;69.40;;;;;;5074673;28;20108;-66
2023/05/14 11:52:29;;;;;;;1.65;1.55;;;19.20;69.40;;;;;;5074924;28;20028;-66
2023/05/14 11:54:55;;;;;;;3.53;1.45;;;19.20;69.20;;;;;;5073707;28;20016;-66
2023/05/14 11:57:21;;;;;;;2.58;1.52;;;19.20;69.20;;;;;;5074795;28;20361;-66
2023/05/14 11:59:54;;;;;;;1.25;1.08;;;19.30;69.10;;;;;;5074072;28;20052;-65
2023/05/14 12:02:21;;;;;;;1.20;1.10;;;19.30;68.80;;;;;;5074816;28;20116;-66
2023/05/14 12:04:53;;;;;;;2.47;1.70;;;19.30;68.60;;;;;;5074837;28;20103;-64
2023/05/14 12:07:19;;;;;;;1.35;1.25;;;19.30;68.40;;;;;;5074972;28;20473;-64
2023/05/14 12:09:48;;;;;;;1.38;1.25;;;19.40;68.20;;;;;;5074699;28;20341;-64
2023/05/14 12:12:19;;;;;;;1.92;1.30;;;19.40;68.20;;;;;;5075513;28;20032;-66
2023/05/14 12:14:45;;;;;;;1.55;1.45;;;19.40;68.10;;;;;;5073715;28;20069;-66
2023/05/14 12:17:18;;;;;;;1.35;1.25;;;19.40;67.30;;;;;;5075193;28;20021;-65
2023/05/14 12:19:46;;;;;;;2.78;1.70;;;19.40;67.50;;;;;;5075191;28;20024;-64
2023/05/14 12:22:18;;;;;;;1.70;1.30;;;19.40;66.90;;;;;;5074943;28;20032;-65
2023/05/14 12:25:10;;;;;;;1.98;1.05;;;19.40;66.60;;;;;;5074858;28;20060;-64
2023/05/14 12:27:36;;;;;;;2.22;1.50;;;19.20;64.90;;;;;;5074658;28;20040;-65
2023/05/14 12:30:05;;;;;;;1.70;1.33;;;19.20;65.60;;;;;;5074651;28;20450;-65
2023/05/14 12:32:32;;;;;;;1.67;1.20;;;19.10;65.30;;;;;;5072908;28;20115;-66
2023/05/14 12:34:58;;;;;;;1.60;1.50;;;19.00;64.90;;;;;;5074437;28;20083;-69
2023/05/14 12:37:27;;;;;;;1.90;1.20;;;19.00;65.70;;;;;;5074111;28;20331;-67
2023/05/14 12:39:54;;;;;;;1.63;1.30;;;19.00;65.30;;;;;;5073949;28;20044;-66
2023/05/14 12:42:19;;;;;;;2.15;1.20;;;18.90;63.60;;;;;;5074184;28;20029;-66
2023/05/14 12:44:45;;;;;;;1.20;1.00;;;19.00;64.80;;;;;;5074728;28;20024;-64
2023/05/14 12:47:11;;;;;;;1.60;1.38;;;19.00;64.50;;;;;;5073575;28;20068;-70